createdAt,value
2023-05-22T00:01:04.832Z,0.06
2023-05-22T00:03:31.302Z,0.00
2023-05-22T00:05:58.812Z,0.00
2023-05-22T00:08:29.310Z,0.00
2023-05-22T00:10:56.199Z,0.00
2023-05-22T00:13:22.688Z,0.00
2023-05-22T00:15:49.535Z,0.00
2023-05-22T00:18:16.149Z,0.00
2023-05-22T00:20:42.734Z,0.00
2023-05-22T00:23:10.225Z,0.00
2023-05-22T00:25:37.426Z,0.00
2023-05-22T00:28:04.782Z,0.00
2023-05-22T00:30:31.840Z,0.00
2023-05-22T00:32:58.482Z,0.00
2023-05-22T00:35:25.021Z,0.00
2023-05-22T00:37:51.452Z,0.00
2023-05-22T00:40:18.050Z,0.00
2023-05-22T00:42:44.944Z,0.00
2023-05-22T00:45:15.023Z,0.00
2023-05-22T00:47:42.006Z,0.00
2023-05-22T00:50:11.014Z,0.00
2023-05-22T00:52:42.962Z,0.00
2023-05-22T00:55:11.870Z,0.00
2023-05-22T00:57:41.888Z,0.00
2023-05-22T01:00:11.173Z,0.00
2023-05-22T01:02:38.130Z,0.00
2023-05-22T01:05:11.145Z,0.00
2023-05-22T01:07:38.657Z,0.00
2023-05-22T01:10:06.121Z,0.00
2023-05-22T01:13:02.423Z,0.00
2023-05-22T01:15:47.295Z,0.00
2023-05-22T01:18:25.088Z,0.00
2023-05-22T01:21:04.175Z,0.00
2023-05-22T01:24:04.439Z,0.00
2023-05-22T01:26:58.878Z,0.00
2023-05-22T01:29:55.678Z,0.00
2023-05-22T01:32:25.754Z,0.00
2023-05-22T01:34:54.768Z,0.00
2023-05-22T01:37:22.530Z,0.00
2023-05-22T01:39:51.454Z,0.00
2023-05-22T01:42:18.943Z,0.00
2023-05-22T01:44:45.492Z,0.00
2023-05-22T01:47:11.998Z,0.00
2023-05-22T01:49:39.810Z,0.00
2023-05-22T01:52:06.667Z,0.00
2023-05-22T01:54:43.020Z,0.00
2023-05-22T01:57:12.252Z,0.00
2023-05-22T02:00:05.613Z,0.00
2023-05-22T02:02:49.090Z,0.00
2023-05-22T02:05:19.007Z,0.00
2023-05-22T02:07:47.560Z,0.00
2023-05-22T02:10:15.926Z,0.00
2023-05-22T02:12:42.638Z,0.00
2023-05-22T02:15:09.480Z,0.00
2023-05-22T02:17:42.626Z,0.00
2023-05-22T02:20:15.359Z,0.00
2023-05-22T02:22:47.885Z,0.00
2023-05-22T02:25:17.045Z,0.00
2023-05-22T02:27:45.910Z,0.00
2023-05-22T02:30:13.650Z,0.00
2023-05-22T02:32:42.295Z,0.00
2023-05-22T02:35:09.523Z,0.00
2023-05-22T02:37:36.782Z,0.00
2023-05-22T02:40:06.685Z,0.00
2023-05-22T02:42:34.434Z,0.00
2023-05-22T02:45:01.719Z,0.00
2023-05-22T02:47:28.341Z,0.00
2023-05-22T02:49:57.757Z,0.00
2023-05-22T02:52:24.888Z,0.00
2023-05-22T02:54:51.435Z,0.00
2023-05-22T02:57:18.576Z,0.00
2023-05-22T02:59:45.051Z,0.00
2023-05-22T03:02:14.979Z,0.00
2023-05-22T03:04:41.893Z,0.00
2023-05-22T03:07:08.840Z,0.00
2023-05-22T03:09:35.850Z,0.00
2023-05-22T03:12:02.405Z,0.00
2023-05-22T03:14:29.244Z,0.00
2023-05-22T03:16:56.299Z,0.00
2023-05-22T03:19:23.210Z,0.00
2023-05-22T03:21:50.060Z,0.00
2023-05-22T03:24:16.948Z,0.00
2023-05-22T03:26:43.905Z,0.00
2023-05-22T03:29:16.759Z,0.00
2023-05-22T03:31:43.590Z,0.00
2023-05-22T03:34:13.492Z,0.00
2023-05-22T03:36:42.331Z,0.00
2023-05-22T03:39:08.850Z,0.00
2023-05-22T03:41:40.175Z,0.00
2023-05-22T03:44:07.397Z,0.00
2023-05-22T03:46:33.936Z,0.00
2023-05-22T03:49:00.445Z,0.00
2023-05-22T03:51:27.023Z,0.00
2023-05-22T03:53:53.668Z,0.00
2023-05-22T03:56:21.091Z,0.00
2023-05-22T03:58:48.767Z,0.00
2023-05-22T04:01:16.924Z,0.00
2023-05-22T04:03:44.023Z,0.00
2023-05-22T04:06:10.904Z,0.00
2023-05-22T04:08:37.370Z,0.00
2023-05-22T04:11:05.320Z,0.00
2023-05-22T04:13:33.062Z,0.00
2023-05-22T04:16:01.955Z,0.00
2023-05-22T04:18:28.794Z,0.00
2023-05-22T04:20:57.404Z,0.00
2023-05-22T04:23:24.035Z,0.00
2023-05-22T04:25:51.229Z,0.00
2023-05-22T04:28:22.255Z,0.00
2023-05-22T04:30:49.388Z,0.00
2023-05-22T04:33:18.064Z,0.00
2023-05-22T04:35:44.615Z,0.00
2023-05-22T04:38:11.119Z,0.00
2023-05-22T04:40:38.084Z,0.00
2023-05-22T04:43:05.040Z,0.00
2023-05-22T04:45:32.778Z,0.00
2023-05-22T04:48:02.340Z,0.00
2023-05-22T04:50:32.531Z,0.00
2023-05-22T04:53:05.763Z,0.00
2023-05-22T04:55:35.146Z,0.00
2023-05-22T04:58:01.637Z,0.00
2023-05-22T05:00:29.093Z,0.00
2023-05-22T05:02:57.418Z,0.00
2023-05-22T05:05:24.301Z,0.00
2023-05-22T05:07:51.747Z,0.00
2023-05-22T05:10:19.455Z,0.00
2023-05-22T05:12:45.936Z,0.00
2023-05-22T05:15:12.728Z,0.00
2023-05-22T05:17:39.585Z,0.00
2023-05-22T05:20:07.878Z,0.00
2023-05-22T05:22:34.354Z,0.00
2023-05-22T05:25:03.624Z,0.00
2023-05-22T05:27:30.100Z,0.00
2023-05-22T05:29:58.842Z,0.00
2023-05-22T05:32:31.062Z,0.00
2023-05-22T05:35:07.787Z,0.00
2023-05-22T05:37:44.053Z,0.00
2023-05-22T05:40:12.194Z,0.00
2023-05-22T05:42:43.762Z,0.00
2023-05-22T05:45:11.392Z,0.00
2023-05-22T05:47:37.939Z,0.00
2023-05-22T05:50:04.914Z,1.56
2023-05-22T05:52:33.576Z,0.00
2023-05-22T05:55:04.337Z,33.89
2023-05-22T05:57:31.143Z,52.98
2023-05-22T05:59:57.973Z,73.13
2023-05-22T06:02:43.551Z,80.73
2023-05-22T06:05:26.852Z,88.70
2023-05-22T06:08:00.248Z,90.06
2023-05-22T06:10:27.208Z,90.06
2023-05-22T06:13:12.336Z,89.48
2023-05-22T06:15:40.038Z,87.96
2023-05-22T06:18:06.715Z,86.46
2023-05-22T06:20:33.406Z,86.66
2023-05-22T06:23:00.250Z,86.80
2023-05-22T06:25:29.938Z,88.78
2023-05-22T06:27:57.042Z,89.21
2023-05-22T06:30:43.720Z,87.74
2023-05-22T06:33:14.590Z,87.15
2023-05-22T06:35:42.111Z,87.42
2023-05-22T06:38:08.910Z,87.80
2023-05-22T06:40:35.665Z,87.31
2023-05-22T06:43:10.162Z,85.40
2023-05-22T06:45:46.002Z,84.62
2023-05-22T06:48:12.639Z,84.29
2023-05-22T06:50:51.994Z,81.92
2023-05-22T06:53:18.580Z,81.19
2023-05-22T06:55:45.166Z,83.04
2023-05-22T06:58:18.661Z,82.63
2023-05-22T07:00:45.296Z,81.93
2023-05-22T07:03:18.954Z,81.33
2023-05-22T07:06:18.329Z,82.29
2023-05-22T07:08:45.540Z,83.79
2023-05-22T07:11:12.122Z,84.98
2023-05-22T07:13:38.603Z,86.95
2023-05-22T07:16:06.384Z,86.43
2023-05-22T07:18:34.244Z,87.54
2023-05-22T07:21:01.518Z,86.11
2023-05-22T07:23:28.745Z,87.06
2023-05-22T07:25:55.389Z,87.56
2023-05-22T07:28:25.528Z,87.96
2023-05-22T07:31:00.336Z,85.31
2023-05-22T07:33:27.195Z,82.84
2023-05-22T07:35:54.791Z,83.19
2023-05-22T07:38:21.301Z,84.00
2023-05-22T07:40:56.356Z,83.74
2023-05-22T07:43:23.703Z,84.19
2023-05-22T07:45:51.153Z,85.78
2023-05-22T07:48:21.648Z,84.43
2023-05-22T07:50:48.307Z,85.05
2023-05-22T07:53:16.340Z,83.53
2023-05-22T07:55:44.294Z,81.96
2023-05-22T07:58:11.359Z,84.62
2023-05-22T08:00:41.709Z,83.96
2023-05-22T08:03:08.545Z,80.23
2023-05-22T08:05:35.170Z,83.96
2023-05-22T08:08:02.961Z,80.53
2023-05-22T08:10:37.218Z,80.10
2023-05-22T08:13:13.358Z,81.32
2023-05-22T08:15:39.813Z,81.57
2023-05-22T08:18:06.405Z,81.20
2023-05-22T08:20:33.530Z,78.53
2023-05-22T08:23:00.327Z,78.77
2023-05-22T08:25:26.845Z,80.24
2023-05-22T08:27:53.329Z,78.70
2023-05-22T08:30:19.850Z,81.99
2023-05-22T08:32:46.394Z,78.56
2023-05-22T08:35:14.221Z,80.57
2023-05-22T08:37:41.242Z,79.98
2023-05-22T08:40:11.481Z,76.63
2023-05-22T08:42:38.481Z,78.44
2023-05-22T08:45:07.004Z,76.75
2023-05-22T08:47:35.926Z,76.82
2023-05-22T08:50:03.206Z,75.61
2023-05-22T08:52:51.030Z,72.37
2023-05-22T08:55:19.525Z,74.34
2023-05-22T08:57:47.285Z,77.03
2023-05-22T09:00:14.420Z,73.87
2023-05-22T09:02:42.477Z,72.20
2023-05-22T09:05:09.792Z,71.08
2023-05-22T09:07:37.956Z,71.32
2023-05-22T09:10:07.040Z,70.23
2023-05-22T09:12:34.063Z,72.68
2023-05-22T09:15:10.142Z,71.55
2023-05-22T09:17:40.696Z,70.54
2023-05-22T09:20:10.084Z,68.71
2023-05-22T09:22:38.219Z,72.17
2023-05-22T09:25:05.418Z,73.96
2023-05-22T09:27:32.106Z,73.47
2023-05-22T09:29:58.668Z,74.69
2023-05-22T09:32:29.656Z,69.75
2023-05-22T09:35:04.027Z,68.76
2023-05-22T09:37:37.288Z,68.65
2023-05-22T09:40:09.474Z,69.04
2023-05-22T09:42:36.438Z,68.00
2023-05-22T09:45:07.752Z,69.90
2023-05-22T09:47:35.013Z,73.44
2023-05-22T09:50:06.188Z,71.40
2023-05-22T09:52:34.837Z,68.93
2023-05-22T09:55:08.830Z,67.45
2023-05-22T09:57:43.898Z,64.72
2023-05-22T10:00:15.910Z,63.07
2023-05-22T10:02:48.737Z,61.67
2023-05-22T10:05:22.068Z,59.08
2023-05-22T10:07:56.090Z,57.56
2023-05-22T10:10:25.917Z,58.85
2023-05-22T10:13:03.612Z,60.36
2023-05-22T10:15:32.153Z,61.07
2023-05-22T10:17:59.285Z,58.61
2023-05-22T10:20:26.835Z,60.62
2023-05-22T10:22:53.974Z,58.12
2023-05-22T10:25:23.337Z,58.85
2023-05-22T10:27:53.423Z,61.32
2023-05-22T10:30:47.648Z,59.87
2023-05-22T10:33:30.686Z,58.92
2023-05-22T10:36:08.610Z,57.05
2023-05-22T10:39:04.640Z,56.23
2023-05-22T10:41:31.370Z,53.35
2023-05-22T10:43:58.325Z,54.79
2023-05-22T10:46:25.302Z,52.82
2023-05-22T10:48:54.074Z,54.23
2023-05-22T10:51:23.557Z,55.40
2023-05-22T10:53:58.267Z,50.74
2023-05-22T10:56:33.228Z,49.46
2023-05-22T10:59:08.345Z,50.81
2023-05-22T11:01:37.890Z,49.23
2023-05-22T11:04:18.722Z,49.66
2023-05-22T11:07:02.702Z,51.90
2023-05-22T11:09:31.085Z,50.94
2023-05-22T11:12:27.442Z,49.98
2023-05-22T11:14:56.864Z,48.65
2023-05-22T11:17:28.953Z,49.08
2023-05-22T11:20:02.935Z,49.34
2023-05-22T11:22:37.554Z,50.36
2023-05-22T11:25:10.747Z,50.41
2023-05-22T11:27:40.608Z,50.44
2023-05-22T11:30:08.759Z,49.28
2023-05-22T11:32:39.674Z,50.16
2023-05-22T11:35:08.474Z,47.89
2023-05-22T11:37:41.637Z,47.17
2023-05-22T11:40:09.629Z,48.57
2023-05-22T11:42:37.615Z,47.83
2023-05-22T11:45:05.160Z,48.86
2023-05-22T11:47:31.834Z,48.97
2023-05-22T11:49:59.770Z,49.96
2023-05-22T11:52:33.967Z,48.37
2023-05-22T11:55:01.264Z,50.04
2023-05-22T11:57:28.366Z,49.88
2023-05-22T11:59:54.879Z,52.13
2023-05-22T12:02:21.444Z,51.67
2023-05-22T12:04:47.935Z,51.36
2023-05-22T12:07:14.499Z,52.21
2023-05-22T12:09:42.710Z,50.43
2023-05-22T12:12:11.240Z,47.66
2023-05-22T12:14:37.890Z,47.44
2023-05-22T12:17:04.472Z,46.85
2023-05-22T12:19:31.203Z,48.93
2023-05-22T12:21:58.770Z,49.38
2023-05-22T12:24:25.555Z,49.19
2023-05-22T12:26:53.263Z,48.10
2023-05-22T12:29:22.813Z,49.66
2023-05-22T12:31:49.480Z,50.63
2023-05-22T12:34:18.427Z,51.57
2023-05-22T12:36:46.944Z,51.29
2023-05-22T12:39:17.962Z,50.23
2023-05-22T12:41:45.642Z,48.16
2023-05-22T12:44:12.958Z,48.82
2023-05-22T12:46:41.010Z,48.63
2023-05-22T12:49:07.882Z,48.19
2023-05-22T12:51:34.847Z,46.95
2023-05-22T12:54:02.160Z,48.73
2023-05-22T12:56:31.760Z,50.35
2023-05-22T12:58:58.878Z,52.15
2023-05-22T13:01:26.221Z,51.04
2023-05-22T13:03:53.086Z,56.17
2023-05-22T13:06:20.356Z,56.09
2023-05-22T13:08:46.902Z,55.31
2023-05-22T13:11:13.332Z,56.46
2023-05-22T13:13:39.967Z,58.18
2023-05-22T13:16:06.501Z,59.83
2023-05-22T13:18:32.976Z,60.80
2023-05-22T13:21:00.229Z,61.53
2023-05-22T13:23:26.773Z,62.29
2023-05-22T13:25:53.295Z,63.00
2023-05-22T13:28:19.803Z,62.76
2023-05-22T13:30:46.236Z,63.17
2023-05-22T13:33:13.510Z,63.45
2023-05-22T13:35:40.337Z,60.99
2023-05-22T13:38:07.195Z,61.64
2023-05-22T13:40:33.730Z,61.06
2023-05-22T13:43:00.258Z,60.72
2023-05-22T13:45:27.643Z,60.63
2023-05-22T13:47:54.302Z,63.15
2023-05-22T13:50:20.840Z,63.14
2023-05-22T13:52:47.374Z,63.84
2023-05-22T13:55:13.892Z,62.13
2023-05-22T13:57:40.665Z,59.45
2023-05-22T14:00:09.319Z,59.26
2023-05-22T14:02:36.061Z,60.23
2023-05-22T14:05:02.829Z,59.29
2023-05-22T14:07:29.292Z,61.12
2023-05-22T14:09:55.824Z,60.54
2023-05-22T14:12:22.284Z,58.69
2023-05-22T14:14:48.726Z,58.37
2023-05-22T14:17:15.218Z,58.24
2023-05-22T14:19:41.742Z,56.82
2023-05-22T14:22:08.199Z,58.73
2023-05-22T14:24:34.727Z,59.91
2023-05-22T14:27:01.264Z,59.53
2023-05-22T14:29:28.070Z,58.67
2023-05-22T14:32:01.203Z,59.40
2023-05-22T14:34:27.690Z,60.79
2023-05-22T14:36:56.457Z,61.28
2023-05-22T14:39:24.632Z,62.77
2023-05-22T14:41:52.488Z,63.52
2023-05-22T14:44:19.511Z,62.48
2023-05-22T14:46:46.227Z,62.62
2023-05-22T14:49:12.857Z,61.27
2023-05-22T14:51:39.337Z,61.58
2023-05-22T14:54:06.838Z,61.79
2023-05-22T14:56:33.534Z,62.61
2023-05-22T14:59:00.031Z,60.60
2023-05-22T15:01:26.651Z,60.29
2023-05-22T15:03:53.192Z,62.07
2023-05-22T15:06:19.649Z,61.71
2023-05-22T15:08:46.091Z,60.55
2023-05-22T15:11:12.636Z,57.75
2023-05-22T15:13:39.069Z,59.03
2023-05-22T15:16:05.583Z,60.67
2023-05-22T15:18:32.072Z,60.15
2023-05-22T15:20:58.665Z,61.42
2023-05-22T15:23:26.488Z,61.10
2023-05-22T15:25:53.891Z,61.43
2023-05-22T15:28:21.364Z,61.10
2023-05-22T15:30:47.868Z,62.01
2023-05-22T15:33:15.093Z,61.14
2023-05-22T15:35:43.424Z,58.53
2023-05-22T15:38:12.522Z,57.91
2023-05-22T15:40:44.302Z,58.05
2023-05-22T15:43:10.911Z,58.97
2023-05-22T15:45:38.144Z,58.04
2023-05-22T15:48:05.868Z,58.08
2023-05-22T15:50:33.771Z,59.72
2023-05-22T15:53:01.014Z,59.94
2023-05-22T15:55:28.768Z,59.46
2023-05-22T15:57:55.296Z,58.52
2023-05-22T16:00:21.886Z,59.46
2023-05-22T16:02:49.249Z,59.68
2023-05-22T16:05:16.169Z,59.53
2023-05-22T16:07:42.592Z,60.20
2023-05-22T16:10:09.373Z,60.90
2023-05-22T16:12:35.914Z,60.49
2023-05-22T16:15:03.835Z,61.30
2023-05-22T16:17:31.713Z,62.71
2023-05-22T16:19:58.227Z,61.70
2023-05-22T16:22:30.401Z,62.28
2023-05-22T16:25:03.190Z,62.18
2023-05-22T16:27:29.680Z,62.68
2023-05-22T16:29:56.201Z,63.20
2023-05-22T16:32:22.977Z,62.65
2023-05-22T16:34:49.520Z,62.12
2023-05-22T16:37:15.993Z,64.32
2023-05-22T16:39:45.908Z,64.52
2023-05-22T16:42:12.632Z,64.96
2023-05-22T16:44:39.057Z,65.59
2023-05-22T16:47:05.628Z,66.55
2023-05-22T16:49:32.178Z,66.66
2023-05-22T16:51:58.778Z,67.38
2023-05-22T16:54:25.311Z,67.23
2023-05-22T16:56:51.952Z,66.13
2023-05-22T16:59:19.436Z,66.37
2023-05-22T17:01:46.654Z,66.51
2023-05-22T17:04:15.585Z,66.73
2023-05-22T17:06:43.316Z,66.19
2023-05-22T17:09:10.343Z,67.47
2023-05-22T17:11:37.412Z,67.19
2023-05-22T17:14:04.393Z,68.22
2023-05-22T17:16:31.493Z,68.92
2023-05-22T17:18:58.042Z,69.85
2023-05-22T17:21:24.642Z,71.10
2023-05-22T17:23:51.078Z,72.70
2023-05-22T17:26:17.551Z,73.59
2023-05-22T17:28:44.522Z,74.64
2023-05-22T17:31:10.981Z,75.02
2023-05-22T17:33:37.490Z,75.85
2023-05-22T17:36:04.151Z,77.58
2023-05-22T17:38:30.795Z,78.51
2023-05-22T17:40:57.751Z,78.56
2023-05-22T17:43:24.253Z,78.56
2023-05-22T17:45:50.914Z,78.85
2023-05-22T17:48:26.929Z,78.32
2023-05-22T17:50:53.729Z,78.21
2023-05-22T17:53:20.990Z,78.18
2023-05-22T17:55:49.319Z,78.35
2023-05-22T17:58:16.644Z,78.33
2023-05-22T18:00:43.553Z,79.30
2023-05-22T18:03:10.166Z,79.65
2023-05-22T18:05:36.747Z,79.92
2023-05-22T18:08:03.519Z,79.55
2023-05-22T18:10:30.080Z,79.49
2023-05-22T18:12:56.541Z,79.92
2023-05-22T18:15:23.180Z,80.33
2023-05-22T18:17:49.723Z,80.89
2023-05-22T18:20:16.838Z,81.67
2023-05-22T18:22:43.394Z,81.31
2023-05-22T18:25:10.066Z,81.71
2023-05-22T18:27:36.672Z,81.76
2023-05-22T18:30:05.029Z,82.23
2023-05-22T18:32:31.759Z,81.72
2023-05-22T18:35:03.771Z,82.15
2023-05-22T18:37:30.313Z,82.57
2023-05-22T18:39:57.033Z,82.50
2023-05-22T18:42:23.750Z,82.95
2023-05-22T18:44:50.664Z,82.92
2023-05-22T18:47:17.455Z,82.95
2023-05-22T18:49:43.990Z,83.95
2023-05-22T18:52:10.481Z,84.40
2023-05-22T18:54:36.949Z,85.42
2023-05-22T18:57:03.733Z,86.06
2023-05-22T18:59:30.170Z,86.35
2023-05-22T19:01:56.639Z,86.41
2023-05-22T19:04:23.118Z,86.41
2023-05-22T19:06:49.593Z,86.92
2023-05-22T19:09:16.599Z,86.65
2023-05-22T19:11:43.073Z,87.17
2023-05-22T19:14:09.510Z,86.86
2023-05-22T19:16:35.956Z,86.73
2023-05-22T19:19:03.162Z,87.48
2023-05-22T19:21:29.653Z,87.61
2023-05-22T19:23:56.115Z,88.33
2023-05-22T19:26:22.664Z,88.43
2023-05-22T19:28:49.182Z,88.64
2023-05-22T19:31:16.387Z,88.83
2023-05-22T19:33:43.621Z,88.99
2023-05-22T19:36:10.098Z,88.98
2023-05-22T19:38:36.593Z,88.94
2023-05-22T19:41:03.098Z,89.16
2023-05-22T19:43:31.246Z,89.24
2023-05-22T19:45:58.403Z,89.21
2023-05-22T19:48:25.611Z,89.30
2023-05-22T19:50:52.288Z,89.06
2023-05-22T19:53:18.885Z,89.02
2023-05-22T19:55:45.922Z,88.76
2023-05-22T19:58:12.361Z,88.52
2023-05-22T20:00:39.223Z,88.62
2023-05-22T20:03:05.987Z,88.49
2023-05-22T20:05:32.690Z,88.36
2023-05-22T20:07:59.239Z,88.27
2023-05-22T20:10:25.998Z,87.90
2023-05-22T20:12:55.595Z,87.71
2023-05-22T20:15:22.751Z,87.81
2023-05-22T20:17:51.985Z,87.62
2023-05-22T20:20:19.470Z,87.49
2023-05-22T20:22:46.104Z,86.78
2023-05-22T20:25:13.597Z,85.38
2023-05-22T20:27:40.226Z,83.60
2023-05-22T20:30:07.809Z,85.01
2023-05-22T20:32:34.691Z,84.88
2023-05-22T20:35:01.111Z,84.86
2023-05-22T20:37:27.597Z,85.27
2023-05-22T20:39:54.303Z,85.82
2023-05-22T20:42:22.318Z,86.14
2023-05-22T20:44:48.787Z,87.19
2023-05-22T20:47:15.259Z,86.78
2023-05-22T20:49:41.850Z,87.42
2023-05-22T20:52:09.955Z,87.53
2023-05-22T20:54:36.476Z,88.93
2023-05-22T20:57:03.229Z,89.23
2023-05-22T20:59:29.884Z,89.66
2023-05-22T21:01:57.015Z,89.71
2023-05-22T21:04:23.964Z,89.82
2023-05-22T21:06:50.918Z,89.85
2023-05-22T21:09:17.422Z,89.84
2023-05-22T21:11:43.910Z,89.87
2023-05-22T21:14:10.340Z,89.88
2023-05-22T21:16:39.293Z,90.19
2023-05-22T21:19:06.990Z,89.90
2023-05-22T21:21:33.663Z,89.77
2023-05-22T21:24:00.126Z,89.79
2023-05-22T21:26:27.459Z,89.87
2023-05-22T21:28:54.640Z,89.79
2023-05-22T21:31:21.200Z,90.00
2023-05-22T21:33:47.711Z,89.70
2023-05-22T21:36:14.139Z,89.37
2023-05-22T21:38:41.043Z,89.44
2023-05-22T21:41:07.532Z,89.03
2023-05-22T21:43:34.051Z,88.94
2023-05-22T21:46:00.526Z,89.12
2023-05-22T21:48:26.963Z,88.88
2023-05-22T21:50:53.454Z,88.64
2023-05-22T21:53:20.789Z,88.43
2023-05-22T21:55:47.248Z,87.67
2023-05-22T21:58:13.750Z,87.84
2023-05-22T22:00:41.105Z,87.75
2023-05-22T22:03:07.992Z,87.71
2023-05-22T22:05:35.937Z,87.76
2023-05-22T22:08:02.496Z,87.97
2023-05-22T22:10:29.009Z,88.14
2023-05-22T22:12:55.673Z,88.02
2023-05-22T22:15:22.469Z,87.93
2023-05-22T22:17:50.147Z,88.02
2023-05-22T22:20:18.675Z,88.21
2023-05-22T22:22:49.018Z,88.14
2023-05-22T22:25:15.490Z,88.57
2023-05-22T22:27:41.985Z,88.79
2023-05-22T22:30:09.130Z,88.91
2023-05-22T22:32:36.594Z,88.79
2023-05-22T22:35:03.086Z,89.05
2023-05-22T22:37:29.570Z,88.79
2023-05-22T22:39:56.162Z,88.96
2023-05-22T22:42:22.908Z,88.51
2023-05-22T22:44:49.433Z,88.54
2023-05-22T22:47:15.968Z,89.18
2023-05-22T22:49:42.385Z,89.15
2023-05-22T22:52:08.905Z,88.68
2023-05-22T22:54:35.490Z,88.12
2023-05-22T22:57:02.228Z,87.85
2023-05-22T22:59:28.763Z,88.02
2023-05-22T23:01:55.246Z,88.24
2023-05-22T23:04:21.796Z,88.50
2023-05-22T23:06:48.294Z,88.51
2023-05-22T23:09:14.845Z,88.25
2023-05-22T23:11:41.378Z,88.41
2023-05-22T23:14:09.460Z,88.37
2023-05-22T23:16:37.371Z,88.91
2023-05-22T23:19:04.729Z,89.36
2023-05-22T23:21:32.177Z,89.25
2023-05-22T23:23:59.206Z,89.06
2023-05-22T23:26:26.721Z,89.40
2023-05-22T23:28:53.249Z,88.90
2023-05-22T23:31:21.183Z,89.43
2023-05-22T23:33:47.849Z,89.27
2023-05-22T23:36:14.329Z,89.13
2023-05-22T23:38:40.918Z,88.35
2023-05-22T23:41:07.390Z,87.90
2023-05-22T23:43:33.827Z,87.98
2023-05-22T23:46:00.421Z,87.61
2023-05-22T23:48:26.924Z,87.81
2023-05-22T23:50:53.338Z,87.66
2023-05-22T23:53:19.754Z,87.83
2023-05-22T23:55:46.340Z,87.26
2023-05-22T23:58:12.816Z,87.43
